createdAt,value
2023-01-28T00:00:27.911Z,1020.45
2023-01-28T00:01:26.611Z,1020.40
2023-01-28T00:02:26.631Z,1020.45
2023-01-28T00:03:26.611Z,1020.42
2023-01-28T00:04:26.570Z,1020.45
2023-01-28T00:05:26.556Z,1020.44
2023-01-28T00:06:26.580Z,1020.41
2023-01-28T00:07:26.846Z,1020.45
2023-01-28T00:08:26.540Z,1020.45
2023-01-28T00:09:27.432Z,1020.46
2023-01-28T00:10:26.523Z,1020.43
2023-01-28T00:11:26.519Z,1020.44
2023-01-28T00:12:27.417Z,1020.44
2023-01-28T00:13:27.412Z,1020.47
2023-01-28T00:14:26.480Z,1020.42
2023-01-28T00:15:27.748Z,1020.36
2023-01-28T00:16:27.467Z,1020.38
2023-01-28T00:17:26.430Z,1020.38
2023-01-28T00:18:27.940Z,1020.36
2023-01-28T00:19:26.421Z,1020.37
2023-01-28T00:20:26.397Z,1020.35
2023-01-28T00:21:27.347Z,1020.35
2023-01-28T00:22:26.925Z,1020.37
2023-01-28T00:23:26.378Z,1020.34
2023-01-28T00:24:26.479Z,1020.30
2023-01-28T00:25:26.369Z,1020.33
2023-01-28T00:26:26.351Z,1020.35
2023-01-28T00:27:26.324Z,1020.31
2023-01-28T00:28:26.304Z,1020.30
2023-01-28T00:29:32.914Z,1020.31
2023-01-28T00:30:27.248Z,1020.31
2023-01-28T00:31:26.381Z,1020.29
2023-01-28T00:32:26.294Z,1020.31
2023-01-28T00:33:26.262Z,1020.29
2023-01-28T00:34:26.231Z,1020.32
2023-01-28T00:35:26.242Z,1020.29
2023-01-28T00:36:26.221Z,1020.31
2023-01-28T00:37:26.229Z,1020.29
2023-01-28T00:38:29.391Z,1020.25
2023-01-28T00:39:26.214Z,1020.26
2023-01-28T00:40:26.168Z,1020.28
2023-01-28T00:41:26.189Z,1020.26
2023-01-28T00:42:26.175Z,1020.29
2023-01-28T00:43:26.145Z,1020.29
2023-01-28T00:44:26.143Z,1020.29
2023-01-28T00:45:26.149Z,1020.31
2023-01-28T00:46:26.185Z,1020.29
2023-01-28T00:47:26.123Z,1020.27
2023-01-28T00:48:26.084Z,1020.28
2023-01-28T00:49:33.296Z,1020.30
2023-01-28T00:50:26.081Z,1020.26
2023-01-28T00:51:26.090Z,1020.31
2023-01-28T00:52:26.065Z,1020.27
2023-01-28T00:53:26.036Z,1020.34
2023-01-28T00:54:26.051Z,1020.37
2023-01-28T00:55:26.072Z,1020.30
2023-01-28T00:56:27.358Z,1020.34
2023-01-28T00:57:27.490Z,1020.35
2023-01-28T00:58:25.978Z,1020.33
2023-01-28T00:59:27.407Z,1020.33
2023-01-28T01:00:25.951Z,1020.34
2023-01-28T01:01:26.954Z,1020.30
2023-01-28T01:02:26.836Z,1020.31
2023-01-28T01:03:26.468Z,1020.32
2023-01-28T01:04:25.912Z,1020.36
2023-01-28T01:05:25.944Z,1020.35
2023-01-28T01:06:25.918Z,1020.29
2023-01-28T01:07:25.883Z,1020.31
2023-01-28T01:08:25.873Z,1020.29
2023-01-28T01:09:25.861Z,1020.29
2023-01-28T01:10:25.846Z,1020.28
2023-01-28T01:11:25.863Z,1020.30
2023-01-28T01:12:25.872Z,1020.28
2023-01-28T01:13:25.826Z,1020.26
2023-01-28T01:14:25.801Z,1020.30
2023-01-28T01:15:27.310Z,1020.27
2023-01-28T01:16:27.954Z,1020.29
2023-01-28T01:17:26.382Z,1020.27
2023-01-28T01:18:25.755Z,1020.25
2023-01-28T01:19:25.774Z,1020.25
2023-01-28T01:20:25.775Z,1020.23
2023-01-28T01:21:25.927Z,1020.27
2023-01-28T01:22:25.750Z,1020.33
2023-01-28T01:23:26.469Z,1020.31
2023-01-28T01:24:25.728Z,1020.29
2023-01-28T01:25:25.686Z,1020.31
2023-01-28T01:26:25.767Z,1020.26
2023-01-28T01:27:25.680Z,1020.29
2023-01-28T01:28:25.658Z,1020.28
2023-01-28T01:29:34.918Z,1020.29
2023-01-28T01:30:25.637Z,1020.32
2023-01-28T01:31:25.645Z,1020.34
2023-01-28T01:32:25.634Z,1020.31
2023-01-28T01:33:25.742Z,1020.36
2023-01-28T01:34:28.439Z,1020.28
2023-01-28T01:35:26.537Z,1020.33
2023-01-28T01:36:25.568Z,1020.32
2023-01-28T01:37:25.582Z,1020.34
2023-01-28T01:38:26.335Z,1020.29
2023-01-28T01:39:26.435Z,1020.32
2023-01-28T01:40:26.435Z,1020.30
2023-01-28T01:41:25.520Z,1020.34
2023-01-28T01:42:25.494Z,1020.33
2023-01-28T01:43:26.000Z,1020.27
2023-01-28T01:44:26.418Z,1020.34
2023-01-28T01:45:25.489Z,1020.35
2023-01-28T01:46:25.513Z,1020.37
2023-01-28T01:47:27.001Z,1020.42
2023-01-28T01:48:25.451Z,1020.36
2023-01-28T01:49:25.439Z,1020.34
2023-01-28T01:50:25.408Z,1020.32
2023-01-28T01:51:25.413Z,1020.30
2023-01-28T01:52:25.387Z,1020.27
2023-01-28T01:53:26.136Z,1020.29
2023-01-28T01:54:25.390Z,1020.29
2023-01-28T01:55:25.947Z,1020.30
2023-01-28T01:56:25.363Z,1020.24
2023-01-28T01:57:26.379Z,1020.30
2023-01-28T01:58:25.334Z,1020.27
2023-01-28T01:59:25.327Z,1020.30
2023-01-28T02:00:25.330Z,1020.35
2023-01-28T02:01:25.311Z,1020.34
2023-01-28T02:02:25.326Z,1020.39
2023-01-28T02:03:25.320Z,1020.40
2023-01-28T02:04:25.274Z,1020.44
2023-01-28T02:05:25.252Z,1020.41
2023-01-28T02:06:25.241Z,1020.43
2023-01-28T02:07:25.237Z,1020.47
2023-01-28T02:08:25.248Z,1020.52
2023-01-28T02:09:32.534Z,1020.55
2023-01-28T02:10:25.203Z,1020.50
2023-01-28T02:11:25.177Z,1020.52
2023-01-28T02:12:25.195Z,1020.55
2023-01-28T02:13:25.855Z,1020.58
2023-01-28T02:14:31.335Z,1020.57
2023-01-28T02:15:25.181Z,1020.52
2023-01-28T02:16:25.179Z,1020.60
2023-01-28T02:17:25.139Z,1020.64
2023-01-28T02:18:25.111Z,1020.65
2023-01-28T02:19:25.097Z,1020.65
2023-01-28T02:20:25.858Z,1020.66
2023-01-28T02:21:25.091Z,1020.66
2023-01-28T02:22:25.103Z,1020.64
2023-01-28T02:23:25.080Z,1020.66
2023-01-28T02:24:25.174Z,1020.68
2023-01-28T02:25:25.054Z,1020.67
2023-01-28T02:26:25.049Z,1020.64
2023-01-28T02:27:25.031Z,1020.69
2023-01-28T02:28:25.043Z,1020.70
2023-01-28T02:29:24.984Z,1020.72
2023-01-28T02:30:25.010Z,1020.73
2023-01-28T02:31:25.169Z,1020.65
2023-01-28T02:32:24.968Z,1020.69
2023-01-28T02:33:26.023Z,1020.65
2023-01-28T02:34:24.961Z,1020.68
2023-01-28T02:35:24.952Z,1020.72
2023-01-28T02:36:25.463Z,1020.70
2023-01-28T02:37:24.954Z,1020.71
2023-01-28T02:38:24.906Z,1020.69
2023-01-28T02:39:24.876Z,1020.71
2023-01-28T02:40:24.869Z,1020.68
2023-01-28T02:41:24.858Z,1020.62
2023-01-28T02:42:24.853Z,1020.66
2023-01-28T02:43:25.528Z,1020.61
2023-01-28T02:44:24.841Z,1020.59
2023-01-28T02:45:24.849Z,1020.59
2023-01-28T02:46:24.860Z,1020.63
2023-01-28T02:47:24.806Z,1020.65
2023-01-28T02:48:25.525Z,1020.65
2023-01-28T02:49:25.465Z,1020.66
2023-01-28T02:50:24.755Z,1020.71
2023-01-28T02:51:25.863Z,1020.72
2023-01-28T02:52:25.471Z,1020.71
2023-01-28T02:53:24.762Z,1020.70
2023-01-28T02:54:24.739Z,1020.68
2023-01-28T02:55:24.710Z,1020.68
2023-01-28T02:56:24.709Z,1020.63
2023-01-28T02:58:24.344Z,1020.70
2023-01-28T02:58:29.975Z,1020.73
2023-01-28T02:59:36.403Z,1020.75
2023-01-28T03:00:30.609Z,1020.78
2023-01-28T03:01:30.129Z,1020.79
2023-01-28T03:02:30.089Z,1020.79
2023-01-28T03:03:30.015Z,1020.76
2023-01-28T03:04:30.069Z,1020.81
2023-01-28T03:05:29.975Z,1020.82
2023-01-28T03:06:30.077Z,1020.84
2023-01-28T03:07:30.081Z,1020.82
2023-01-28T03:08:30.082Z,1020.84
2023-01-28T03:09:30.010Z,1020.82
2023-01-28T03:10:30.007Z,1020.85
2023-01-28T03:11:29.880Z,1020.95
2023-01-28T03:12:30.502Z,1020.97
2023-01-28T03:13:31.003Z,1020.96
2023-01-28T03:14:30.196Z,1020.99
2023-01-28T03:15:29.493Z,1020.98
2023-01-28T03:16:30.016Z,1020.99
2023-01-28T03:17:30.068Z,1021.04
2023-01-28T03:18:30.517Z,1021.06
2023-01-28T03:19:35.455Z,1021.08
2023-01-28T03:20:28.920Z,1021.05
2023-01-28T03:21:28.940Z,1021.12
2023-01-28T03:22:28.898Z,1021.12
2023-01-28T03:23:28.910Z,1021.11
2023-01-28T03:24:30.040Z,1021.17
2023-01-28T03:25:28.860Z,1021.13
2023-01-28T03:26:28.836Z,1021.14
2023-01-28T03:27:30.536Z,1021.20
2023-01-28T03:28:30.534Z,1021.20
2023-01-28T03:29:28.869Z,1021.19
2023-01-28T03:30:28.818Z,1021.18
2023-01-28T03:31:29.441Z,1021.24
2023-01-28T03:32:32.032Z,1021.24
2023-01-28T03:33:28.788Z,1021.17
2023-01-28T03:34:28.748Z,1021.17
2023-01-28T03:35:28.740Z,1021.17
2023-01-28T03:36:28.742Z,1021.19
2023-01-28T03:37:28.746Z,1021.20
2023-01-28T03:38:28.723Z,1021.17
2023-01-28T03:39:36.130Z,1021.24
2023-01-28T03:40:28.677Z,1021.23
2023-01-28T03:41:28.687Z,1021.30
2023-01-28T03:42:30.124Z,1021.25
2023-01-28T03:43:28.656Z,1021.30
2023-01-28T03:44:28.647Z,1021.27
2023-01-28T03:45:28.627Z,1021.27
2023-01-28T03:46:28.617Z,1021.28
2023-01-28T03:47:28.618Z,1021.28
2023-01-28T03:48:28.597Z,1021.27
2023-01-28T03:49:28.602Z,1021.26
2023-01-28T03:50:30.469Z,1021.27
2023-01-28T03:51:30.652Z,1021.29
2023-01-28T03:52:28.536Z,1021.30
2023-01-28T03:53:29.062Z,1021.33
2023-01-28T03:54:28.511Z,1021.39
2023-01-28T03:55:28.533Z,1021.32
2023-01-28T03:56:28.486Z,1021.34
2023-01-28T03:57:28.501Z,1021.37
2023-01-28T03:58:28.479Z,1021.37
2023-01-28T03:59:28.482Z,1021.38
2023-01-28T04:00:28.523Z,1021.39
2023-01-28T04:01:28.481Z,1021.38
2023-01-28T04:02:28.515Z,1021.37
2023-01-28T04:03:28.444Z,1021.39
2023-01-28T04:04:28.409Z,1021.40
2023-01-28T04:05:28.387Z,1021.36
2023-01-28T04:06:28.387Z,1021.37
2023-01-28T04:07:28.392Z,1021.40
2023-01-28T04:08:28.353Z,1021.40
2023-01-28T04:09:30.625Z,1021.36
2023-01-28T04:10:29.627Z,1021.36
2023-01-28T04:11:28.344Z,1021.36
2023-01-28T04:12:28.305Z,1021.41
2023-01-28T04:13:28.310Z,1021.37
2023-01-28T04:14:28.305Z,1021.37
2023-01-28T04:15:28.945Z,1021.38
2023-01-28T04:16:29.660Z,1021.39
2023-01-28T04:17:28.238Z,1021.35
2023-01-28T04:18:28.263Z,1021.40
2023-01-28T04:19:34.763Z,1021.40
2023-01-28T04:20:28.214Z,1021.46
2023-01-28T04:21:30.616Z,1021.42
2023-01-28T04:22:28.193Z,1021.48
2023-01-28T04:23:28.965Z,1021.48
2023-01-28T04:24:30.338Z,1021.45
2023-01-28T04:25:28.176Z,1021.49
2023-01-28T04:26:28.173Z,1021.51
2023-01-28T04:27:28.167Z,1021.48
2023-01-28T04:28:28.128Z,1021.46
2023-01-28T04:29:30.599Z,1021.52
2023-01-28T04:30:31.162Z,1021.49
2023-01-28T04:31:28.259Z,1021.55
2023-01-28T04:32:28.316Z,1021.49
2023-01-28T04:33:28.070Z,1021.51
2023-01-28T04:34:28.070Z,1021.49
2023-01-28T04:35:28.266Z,1021.51
2023-01-28T04:36:28.045Z,1021.52
2023-01-28T04:37:28.072Z,1021.54
2023-01-28T04:38:28.039Z,1021.56
2023-01-28T04:39:28.663Z,1021.63
2023-01-28T04:40:28.025Z,1021.60
2023-01-28T04:41:28.006Z,1021.60
2023-01-28T04:42:28.031Z,1021.59
2023-01-28T04:43:27.983Z,1021.61
2023-01-28T04:44:27.959Z,1021.61
2023-01-28T04:45:28.651Z,1021.59
2023-01-28T04:46:27.998Z,1021.61
2023-01-28T04:47:27.915Z,1021.64
2023-01-28T04:48:30.568Z,1021.65
2023-01-28T04:49:34.418Z,1021.70
2023-01-28T04:50:27.918Z,1021.68
2023-01-28T04:51:27.879Z,1021.67
2023-01-28T04:52:27.888Z,1021.71
2023-01-28T04:53:27.872Z,1021.68
2023-01-28T04:54:27.880Z,1021.70
2023-01-28T04:55:27.849Z,1021.75
2023-01-28T04:56:28.108Z,1021.76
2023-01-28T04:57:27.826Z,1021.70
2023-01-28T04:58:27.827Z,1021.70
2023-01-28T04:59:27.818Z,1021.76
2023-01-28T05:00:27.804Z,1021.75
2023-01-28T05:01:27.781Z,1021.77
2023-01-28T05:02:27.859Z,1021.77
2023-01-28T05:03:27.772Z,1021.74
2023-01-28T05:04:27.763Z,1021.74
2023-01-28T05:05:27.729Z,1021.75
2023-01-28T05:06:27.728Z,1021.74
2023-01-28T05:07:30.201Z,1021.77
2023-01-28T05:08:29.634Z,1021.76
2023-01-28T05:09:35.695Z,1021.78
2023-01-28T05:10:28.666Z,1021.73
2023-01-28T05:11:27.657Z,1021.76
2023-01-28T05:12:27.676Z,1021.72
2023-01-28T05:13:27.661Z,1021.76
2023-01-28T05:14:27.676Z,1021.73
2023-01-28T05:15:27.641Z,1021.74
2023-01-28T05:16:27.636Z,1021.75
2023-01-28T05:17:27.664Z,1021.74
2023-01-28T05:18:27.617Z,1021.73
2023-01-28T05:19:27.622Z,1021.79
2023-01-28T05:20:27.599Z,1021.81
2023-01-28T05:21:27.600Z,1021.75
2023-01-28T05:22:27.552Z,1021.82
2023-01-28T05:23:27.527Z,1021.76
2023-01-28T05:24:27.633Z,1021.82
2023-01-28T05:25:27.554Z,1021.86
2023-01-28T05:26:29.067Z,1021.81
2023-01-28T05:27:28.468Z,1021.77
2023-01-28T05:28:27.492Z,1021.79
2023-01-28T05:29:35.261Z,1021.78
2023-01-28T05:30:27.570Z,1021.73
2023-01-28T05:31:27.456Z,1021.76
2023-01-28T05:32:27.493Z,1021.75
2023-01-28T05:33:28.265Z,1021.79
2023-01-28T05:34:27.417Z,1021.78
2023-01-28T05:35:28.274Z,1021.81
2023-01-28T05:36:27.420Z,1021.88
2023-01-28T05:37:28.207Z,1021.85
2023-01-28T05:38:27.383Z,1021.82
2023-01-28T05:39:28.212Z,1021.82
2023-01-28T05:40:27.358Z,1021.83
2023-01-28T05:41:27.344Z,1021.84
2023-01-28T05:42:27.320Z,1021.81
2023-01-28T05:43:27.352Z,1021.82
2023-01-28T05:44:27.327Z,1021.83
2023-01-28T05:45:28.151Z,1021.81
2023-01-28T05:46:28.285Z,1021.81
2023-01-28T05:47:27.312Z,1021.83
2023-01-28T05:48:27.269Z,1021.82
2023-01-28T05:49:35.721Z,1021.79
2023-01-28T05:50:27.269Z,1021.87
2023-01-28T05:51:27.251Z,1021.84
2023-01-28T05:52:27.242Z,1021.90
2023-01-28T05:53:27.240Z,1021.85
2023-01-28T05:54:27.191Z,1021.91
2023-01-28T05:55:27.200Z,1021.93
2023-01-28T05:56:27.208Z,1021.94
2023-01-28T05:57:27.189Z,1021.96
2023-01-28T05:58:27.191Z,1022.00
2023-01-28T05:59:27.185Z,1022.02
2023-01-28T06:00:27.159Z,1022.04
2023-01-28T06:01:27.153Z,1022.04
2023-01-28T06:02:27.210Z,1022.06
2023-01-28T06:03:27.135Z,1022.04
2023-01-28T06:04:27.178Z,1022.06
2023-01-28T06:05:28.323Z,1022.03
2023-01-28T06:06:28.732Z,1021.98
2023-01-28T06:07:27.063Z,1022.07
2023-01-28T06:08:27.821Z,1022.07
2023-01-28T06:09:34.224Z,1022.06
2023-01-28T06:10:27.061Z,1022.06
2023-01-28T06:11:27.835Z,1022.12
2023-01-28T06:12:27.039Z,1022.10
2023-01-28T06:13:27.056Z,1022.13
2023-01-28T06:14:26.988Z,1022.13
2023-01-28T06:15:27.002Z,1022.08
2023-01-28T06:16:26.989Z,1022.08
2023-01-28T06:17:26.983Z,1022.12
2023-01-28T06:18:27.825Z,1022.16
2023-01-28T06:19:26.962Z,1022.11
2023-01-28T06:20:26.918Z,1022.15
2023-01-28T06:21:29.046Z,1022.15
2023-01-28T06:22:26.893Z,1022.12
2023-01-28T06:23:26.916Z,1022.17
2023-01-28T06:24:30.902Z,1022.10
2023-01-28T06:25:27.791Z,1022.08
2023-01-28T06:26:26.865Z,1022.10
2023-01-28T06:27:26.864Z,1022.10
2023-01-28T06:28:26.826Z,1022.15
2023-01-28T06:29:26.852Z,1022.14
2023-01-28T06:30:26.818Z,1022.11
2023-01-28T06:31:27.007Z,1022.12
2023-01-28T06:32:27.044Z,1022.12
2023-01-28T06:33:26.773Z,1022.16
2023-01-28T06:34:26.756Z,1022.18
2023-01-28T06:35:26.806Z,1022.17
2023-01-28T06:36:26.955Z,1022.15
2023-01-28T06:37:26.752Z,1022.19
2023-01-28T06:38:26.730Z,1022.21
2023-01-28T06:39:33.310Z,1022.20
2023-01-28T06:40:26.681Z,1022.24
2023-01-28T06:41:26.717Z,1022.23
2023-01-28T06:42:26.682Z,1022.22
2023-01-28T06:43:27.580Z,1022.21
2023-01-28T06:44:28.295Z,1022.22
2023-01-28T06:45:26.649Z,1022.23
2023-01-28T06:46:26.634Z,1022.22
2023-01-28T06:47:26.609Z,1022.22
2023-01-28T06:48:26.619Z,1022.22
2023-01-28T06:49:26.618Z,1022.29
2023-01-28T06:50:26.597Z,1022.27
2023-01-28T06:51:26.563Z,1022.31
2023-01-28T06:52:26.843Z,1022.28
2023-01-28T06:53:26.546Z,1022.29
2023-01-28T06:54:26.529Z,1022.29
2023-01-28T06:55:27.234Z,1022.27
2023-01-28T06:56:26.525Z,1022.32
2023-01-28T06:57:26.517Z,1022.28
2023-01-28T06:58:26.491Z,1022.29
2023-01-28T06:59:26.488Z,1022.25
2023-01-28T07:00:26.499Z,1022.26
2023-01-28T07:01:26.512Z,1022.28
2023-01-28T07:02:28.167Z,1022.28
2023-01-28T07:03:27.311Z,1022.26
2023-01-28T07:04:26.439Z,1022.27
2023-01-28T07:05:26.425Z,1022.29
2023-01-28T07:06:26.452Z,1022.25
2023-01-28T07:07:26.399Z,1022.31
2023-01-28T07:08:26.403Z,1022.26
2023-01-28T07:09:33.847Z,1022.32
2023-01-28T07:10:26.341Z,1022.26
2023-01-28T07:11:26.336Z,1022.28
2023-01-28T07:12:26.336Z,1022.32
2023-01-28T07:13:26.316Z,1022.26
2023-01-28T07:14:26.297Z,1022.32
2023-01-28T07:15:26.320Z,1022.29
2023-01-28T07:16:26.298Z,1022.35
2023-01-28T07:17:26.327Z,1022.32
2023-01-28T07:18:26.257Z,1022.35
2023-01-28T07:19:26.268Z,1022.31
2023-01-28T07:20:26.254Z,1022.30
2023-01-28T07:21:27.217Z,1022.31
2023-01-28T07:22:26.216Z,1022.30
2023-01-28T07:23:29.032Z,1022.23
2023-01-28T07:24:26.222Z,1022.29
2023-01-28T07:25:26.205Z,1022.27
2023-01-28T07:26:26.193Z,1022.28
2023-01-28T07:27:26.176Z,1022.24
2023-01-28T07:28:26.153Z,1022.25
2023-01-28T07:29:32.663Z,1022.28
2023-01-28T07:30:26.347Z,1022.32
2023-01-28T07:31:26.268Z,1022.30
2023-01-28T07:32:26.103Z,1022.33
2023-01-28T07:33:26.108Z,1022.35
2023-01-28T07:34:26.100Z,1022.39
2023-01-28T07:35:26.089Z,1022.42
2023-01-28T07:36:26.076Z,1022.39
2023-01-28T07:37:26.105Z,1022.28
2023-01-28T07:38:26.047Z,1022.30
2023-01-28T07:39:26.052Z,1022.28
2023-01-28T07:40:26.020Z,1022.28
2023-01-28T07:41:26.763Z,1022.28
2023-01-28T07:42:27.882Z,1022.30
2023-01-28T07:43:26.958Z,1022.35
2023-01-28T07:44:25.978Z,1022.41
2023-01-28T07:45:25.974Z,1022.38
2023-01-28T07:46:25.938Z,1022.44
2023-01-28T07:47:25.998Z,1022.43
2023-01-28T07:48:25.931Z,1022.43
2023-01-28T07:49:25.921Z,1022.45
2023-01-28T07:50:26.446Z,1022.43
2023-01-28T07:51:25.900Z,1022.45
2023-01-28T07:52:25.870Z,1022.42
2023-01-28T07:53:25.878Z,1022.53
2023-01-28T07:54:25.865Z,1022.50
2023-01-28T07:55:25.871Z,1022.60
2023-01-28T07:56:25.844Z,1022.56
2023-01-28T07:57:25.829Z,1022.60
2023-01-28T07:58:25.815Z,1022.56
2023-01-28T07:59:32.967Z,1022.54
2023-01-28T08:00:27.375Z,1022.51
2023-01-28T08:01:25.937Z,1022.52
2023-01-28T08:02:25.763Z,1022.58
2023-01-28T08:03:25.775Z,1022.59
2023-01-28T08:04:25.855Z,1022.56
2023-01-28T08:05:25.834Z,1022.51
2023-01-28T08:06:25.735Z,1022.49
2023-01-28T08:07:26.411Z,1022.51
2023-01-28T08:08:25.772Z,1022.50
2023-01-28T08:09:25.711Z,1022.47
2023-01-28T08:10:26.622Z,1022.47
2023-01-28T08:11:25.689Z,1022.45
2023-01-28T08:12:25.682Z,1022.46
2023-01-28T08:13:25.671Z,1022.48
2023-01-28T08:14:25.661Z,1022.42
2023-01-28T08:15:25.688Z,1022.47
2023-01-28T08:16:25.606Z,1022.39
2023-01-28T08:17:25.635Z,1022.39
2023-01-28T08:18:25.591Z,1022.43
2023-01-28T08:19:32.416Z,1022.45
2023-01-28T08:20:26.334Z,1022.41
2023-01-28T08:21:27.431Z,1022.40
2023-01-28T08:22:25.569Z,1022.43
2023-01-28T08:23:26.511Z,1022.46
2023-01-28T08:24:26.568Z,1022.42
2023-01-28T08:25:25.540Z,1022.39
2023-01-28T08:26:26.441Z,1022.46
2023-01-28T08:27:25.510Z,1022.46
2023-01-28T08:28:25.502Z,1022.54
2023-01-28T08:29:25.499Z,1022.49
2023-01-28T08:30:25.526Z,1022.56
2023-01-28T08:31:25.542Z,1022.51
2023-01-28T08:32:25.440Z,1022.51
2023-01-28T08:33:25.447Z,1022.49
2023-01-28T08:34:25.427Z,1022.46
2023-01-28T08:35:26.017Z,1022.48
2023-01-28T08:36:25.408Z,1022.52
2023-01-28T08:37:25.390Z,1022.54
2023-01-28T08:38:25.395Z,1022.59
2023-01-28T08:39:26.096Z,1022.60
2023-01-28T08:40:25.443Z,1022.62
2023-01-28T08:41:25.379Z,1022.59
2023-01-28T08:42:25.534Z,1022.54
2023-01-28T08:43:25.338Z,1022.53
2023-01-28T08:44:25.333Z,1022.56
2023-01-28T08:45:27.669Z,1022.59
2023-01-28T08:46:25.321Z,1022.62
2023-01-28T08:47:25.277Z,1022.59
2023-01-28T08:48:25.263Z,1022.63
2023-01-28T08:49:25.276Z,1022.63
2023-01-28T08:50:25.264Z,1022.64
2023-01-28T08:51:25.241Z,1022.65
2023-01-28T08:52:25.243Z,1022.66
2023-01-28T08:53:25.238Z,1022.60
2023-01-28T08:54:25.243Z,1022.61
2023-01-28T08:55:25.218Z,1022.65
2023-01-28T08:56:25.200Z,1022.64
2023-01-28T08:57:25.170Z,1022.69
2023-01-28T08:58:25.158Z,1022.72
2023-01-28T08:59:32.841Z,1022.71
2023-01-28T09:00:26.965Z,1022.77
2023-01-28T09:01:25.194Z,1022.77
2023-01-28T09:02:31.505Z,1022.78
2023-01-28T09:03:25.127Z,1022.78
2023-01-28T09:04:25.095Z,1022.83
2023-01-28T09:05:25.097Z,1022.78
2023-01-28T09:06:25.858Z,1022.78
2023-01-28T09:07:25.079Z,1022.80
2023-01-28T09:08:25.413Z,1022.78
2023-01-28T09:09:25.061Z,1022.80
2023-01-28T09:10:25.097Z,1022.76
2023-01-28T09:11:25.031Z,1022.75
2023-01-28T09:12:25.030Z,1022.71
2023-01-28T09:13:24.996Z,1022.76
2023-01-28T09:14:24.981Z,1022.77
2023-01-28T09:15:24.992Z,1022.81
2023-01-28T09:16:25.100Z,1022.80
2023-01-28T09:17:24.966Z,1022.81
2023-01-28T09:18:26.058Z,1022.85
2023-01-28T09:19:26.965Z,1022.82
2023-01-28T09:20:24.920Z,1022.82
2023-01-28T09:21:24.916Z,1022.86
2023-01-28T09:22:24.906Z,1022.87
2023-01-28T09:23:25.115Z,1022.85
2023-01-28T09:24:24.916Z,1022.88
2023-01-28T09:25:24.856Z,1022.90
2023-01-28T09:26:24.855Z,1022.89
2023-01-28T09:27:24.863Z,1022.88
2023-01-28T09:28:24.871Z,1022.93
2023-01-28T09:29:32.360Z,1022.95
2023-01-28T09:30:24.981Z,1022.96
2023-01-28T09:31:24.922Z,1023.02
2023-01-28T09:32:24.813Z,1023.10
2023-01-28T09:33:24.815Z,1023.07
2023-01-28T09:34:24.788Z,1023.07
2023-01-28T09:35:24.771Z,1023.08
2023-01-28T09:36:24.768Z,1023.12
2023-01-28T09:37:26.089Z,1023.10
2023-01-28T09:38:25.496Z,1023.10
2023-01-28T09:39:24.743Z,1023.15
2023-01-28T09:40:24.714Z,1023.15
2023-01-28T09:41:24.810Z,1023.19
2023-01-28T09:42:24.691Z,1023.21
2023-01-28T09:43:24.701Z,1023.23
2023-01-28T09:44:24.675Z,1023.24
2023-01-28T09:45:24.675Z,1023.25
2023-01-28T09:46:24.810Z,1023.29
2023-01-28T09:47:24.651Z,1023.29
2023-01-28T09:48:24.612Z,1023.25
2023-01-28T09:49:31.691Z,1023.30
2023-01-28T09:50:24.588Z,1023.22
2023-01-28T09:51:24.593Z,1023.24
2023-01-28T09:52:24.576Z,1023.18
2023-01-28T09:53:25.021Z,1023.23
2023-01-28T09:54:24.548Z,1023.28
2023-01-28T09:55:24.563Z,1023.35
2023-01-28T09:56:25.500Z,1023.36
2023-01-28T09:57:25.508Z,1023.33
2023-01-28T09:58:24.534Z,1023.33
2023-01-28T09:59:24.491Z,1023.37
2023-01-28T10:00:24.499Z,1023.38
2023-01-28T10:01:24.475Z,1023.38
2023-01-28T10:02:25.087Z,1023.36
2023-01-28T10:03:24.524Z,1023.34
2023-01-28T10:04:24.449Z,1023.33
2023-01-28T10:05:24.443Z,1023.36
2023-01-28T10:06:25.071Z,1023.39
2023-01-28T10:07:24.434Z,1023.42
2023-01-28T10:08:24.406Z,1023.41
2023-01-28T10:09:24.416Z,1023.39
2023-01-28T10:10:24.387Z,1023.37
2023-01-28T10:11:24.393Z,1023.44
2023-01-28T10:12:25.575Z,1023.39
2023-01-28T10:13:24.363Z,1023.42
2023-01-28T10:14:24.317Z,1023.36
2023-01-28T10:15:24.936Z,1023.37
2023-01-28T10:16:24.344Z,1023.43
2023-01-28T10:17:26.847Z,1023.47
2023-01-28T10:18:24.908Z,1023.48
2023-01-28T10:19:31.606Z,1023.49
2023-01-28T10:20:25.005Z,1023.46
2023-01-28T10:21:25.018Z,1023.41
2023-01-28T10:22:24.250Z,1023.43
2023-01-28T10:23:24.538Z,1023.42
2023-01-28T10:24:26.102Z,1023.39
2023-01-28T10:25:25.033Z,1023.37
2023-01-28T10:26:25.044Z,1023.40
2023-01-28T10:27:24.214Z,1023.37
2023-01-28T10:28:25.016Z,1023.37
2023-01-28T10:29:24.429Z,1023.38
2023-01-28T10:30:24.920Z,1023.39
2023-01-28T10:31:24.208Z,1023.34
2023-01-28T10:32:24.153Z,1023.33
2023-01-28T10:33:24.929Z,1023.26
2023-01-28T10:34:25.011Z,1023.24
2023-01-28T10:35:25.055Z,1023.29
2023-01-28T10:36:24.084Z,1023.30
2023-01-28T10:37:24.107Z,1023.29
2023-01-28T10:38:24.934Z,1023.34
2023-01-28T10:39:25.046Z,1023.28
2023-01-28T10:40:24.916Z,1023.30
2023-01-28T10:41:24.049Z,1023.28
2023-01-28T10:42:24.051Z,1023.31
2023-01-28T10:43:24.582Z,1023.34
2023-01-28T10:44:24.511Z,1023.37
2023-01-28T10:45:24.017Z,1023.37
2023-01-28T10:46:24.054Z,1023.38
2023-01-28T10:47:23.990Z,1023.40
2023-01-28T10:48:26.512Z,1023.43
2023-01-28T10:49:23.965Z,1023.46
2023-01-28T10:50:25.137Z,1023.46
2023-01-28T10:51:25.440Z,1023.42
2023-01-28T10:52:23.942Z,1023.41
2023-01-28T10:53:26.323Z,1023.38
2023-01-28T10:54:24.757Z,1023.35
2023-01-28T10:55:24.637Z,1023.36
2023-01-28T10:56:23.900Z,1023.37
2023-01-28T10:57:23.868Z,1023.36
2023-01-28T10:58:23.882Z,1023.32
2023-01-28T10:59:30.362Z,1023.26
2023-01-28T11:00:23.838Z,1023.29
2023-01-28T11:01:23.850Z,1023.22
2023-01-28T11:02:23.838Z,1023.25
2023-01-28T11:03:23.814Z,1023.27
2023-01-28T11:04:23.820Z,1023.27
2023-01-28T11:05:23.778Z,1023.21
2023-01-28T11:06:23.791Z,1023.17
2023-01-28T11:07:23.740Z,1023.24
2023-01-28T11:08:23.764Z,1023.20
2023-01-28T11:09:23.720Z,1023.27
2023-01-28T11:10:23.738Z,1023.26
2023-01-28T11:11:23.705Z,1023.30
2023-01-28T11:12:23.752Z,1023.35
2023-01-28T11:13:23.737Z,1023.27
2023-01-28T11:14:23.737Z,1023.34
2023-01-28T11:15:23.717Z,1023.34
2023-01-28T11:16:23.677Z,1023.36
2023-01-28T11:17:23.707Z,1023.27
2023-01-28T11:18:23.640Z,1023.35
2023-01-28T11:19:30.231Z,1023.31
2023-01-28T11:20:23.637Z,1023.40
2023-01-28T11:21:23.584Z,1023.38
2023-01-28T11:22:23.609Z,1023.42
2023-01-28T11:23:23.629Z,1023.39
2023-01-28T11:24:23.638Z,1023.38
2023-01-28T11:25:23.578Z,1023.25
2023-01-28T11:26:23.563Z,1023.24
2023-01-28T11:27:23.543Z,1023.21
2023-01-28T11:28:23.531Z,1023.17
2023-01-28T11:35:05.518Z,1023.19
2023-01-28T11:36:06.504Z,1023.21
2023-01-28T11:37:06.495Z,1023.18
2023-01-28T11:38:06.469Z,1023.18
2023-01-28T11:39:06.494Z,1023.14
2023-01-28T11:40:06.461Z,1023.09
2023-01-28T11:41:06.471Z,1023.12
2023-01-28T11:42:06.431Z,1023.09
2023-01-28T11:43:06.451Z,1023.09
2023-01-28T11:44:06.428Z,1023.09
2023-01-28T11:45:06.520Z,1023.16
2023-01-28T11:46:06.469Z,1023.13
2023-01-28T11:54:47.842Z,1023.27
2023-01-28T12:03:42.573Z,1023.22
2023-01-28T12:04:43.596Z,1023.21
2023-01-28T12:05:43.560Z,1023.28
2023-01-28T12:06:43.556Z,1023.28
2023-01-28T12:07:43.509Z,1023.31
2023-01-28T12:08:43.525Z,1023.28
2023-01-28T12:09:43.501Z,1023.25
2023-01-28T12:10:43.488Z,1023.21
2023-01-28T12:11:43.531Z,1023.23
2023-01-28T12:12:43.478Z,1023.21
2023-01-28T12:13:43.480Z,1023.20
2023-01-28T12:14:43.465Z,1023.16
2023-01-28T12:15:43.572Z,1023.11
2023-01-28T12:16:43.436Z,1023.07
2023-01-28T12:17:43.478Z,1022.96
2023-01-28T12:18:43.411Z,1023.04
2023-01-28T12:19:43.396Z,1023.00
2023-01-28T12:20:43.396Z,1023.02
2023-01-28T12:21:43.442Z,1023.06
2023-01-28T12:22:43.380Z,1023.08
2023-01-28T12:23:43.352Z,1023.07
2023-01-28T12:24:43.350Z,1023.10
2023-01-28T12:25:43.323Z,1023.11
2023-01-28T12:26:43.332Z,1023.14